Time;durP1;ratioP1;P1;durP2;ratioP2;P2;SDS_P1;SDS_P2;PMS_P1;PMS_P2;Temp;Humidity;BMP_temperature;BMP_pressure;BME280_temperature;BME280_humidity;BME280_pressure;Samples;Min_cycle;Max_cycle;Signal;HPM_P1;HPM_P2
2022/04/14 00:02:16;;;;;;;8.03;4.67;;;;;;;16.43;56.49;96651.66;5032471;28;20580;-69
2022/04/14 00:04:42;;;;;;;7.33;4.53;;;;;;;16.53;56.23;96649.00;5032551;28;20403;-68
2022/04/14 00:07:07;;;;;;;7.17;5.27;;;;;;;16.36;56.86;96656.44;5032233;28;20445;-68
2022/04/14 00:09:35;;;;;;;6.83;4.93;;;;;;;16.24;57.46;96658.56;5032201;28;20468;-67
2022/04/14 00:12:00;;;;;;;8.52;4.68;;;;;;;16.16;57.67;96656.47;5032634;28;20487;-68
2022/04/14 00:14:26;;;;;;;6.13;4.50;;;;;;;16.01;57.79;96657.22;5032021;28;20967;-68
2022/04/14 00:16:51;;;;;;;7.17;4.80;;;;;;;16.11;57.70;96659.06;5032409;28;20395;-67
2022/04/14 00:19:16;;;;;;;7.00;4.67;;;;;;;15.91;58.81;96656.44;5032764;28;20398;-68
2022/04/14 00:21:42;;;;;;;6.28;4.30;;;;;;;15.80;58.86;96653.78;5032334;28;20415;-68
2022/04/14 00:24:07;;;;;;;6.57;4.30;;;;;;;15.50;60.10;96660.81;5031914;28;20391;-68
2022/04/14 00:26:32;;;;;;;7.13;4.50;;;;;;;15.80;59.64;96651.13;5032008;28;20410;-68
2022/04/14 00:28:58;;;;;;;5.40;4.38;;;;;;;15.57;60.06;96654.25;5032266;28;20391;-68
2022/04/14 00:31:23;;;;;;;5.60;4.13;;;;;;;15.24;60.91;96659.94;5031612;28;20414;-68
2022/04/14 00:33:49;;;;;;;6.07;4.33;;;;;;;15.06;61.87;96655.91;5032092;28;20423;-68
2022/04/14 00:36:15;;;;;;;6.32;4.70;;;;;;;15.13;62.34;96653.03;5031687;28;20501;-68
2022/04/14 00:38:41;;;;;;;6.72;4.40;;;;;;;15.15;62.10;96650.94;5032014;28;20881;-68
2022/04/14 00:41:06;;;;;;;6.30;4.68;;;;;;;15.28;62.00;96653.88;5032030;28;20532;-67
2022/04/14 00:43:34;;;;;;;7.40;4.80;;;;;;;15.09;63.17;96660.69;5031921;28;20477;-67
2022/04/14 00:46:01;;;;;;;7.03;5.05;;;;;;;15.03;63.67;96655.66;5031587;28;20406;-68
2022/04/14 00:48:27;;;;;;;9.07;5.53;;;;;;;15.24;62.83;96655.47;5032074;28;20406;-67
2022/04/14 00:50:53;;;;;;;9.52;5.40;;;;;;;15.26;62.47;96658.66;5031915;28;20943;-68
2022/04/14 00:53:20;;;;;;;9.18;5.35;;;;;;;15.27;61.87;96656.78;5031850;28;20390;-68
2022/04/14 00:55:45;;;;;;;9.15;5.72;;;;;;;15.27;61.34;96665.50;5031339;28;20387;-68
2022/04/14 00:58:11;;;;;;;9.30;5.60;;;;;;;15.26;61.67;96669.22;5031388;28;20425;-68
2022/04/14 01:00:36;;;;;;;9.07;5.30;;;;;;;15.24;61.92;96673.94;5031873;28;20804;-68
2022/04/14 01:03:03;;;;;;;9.20;4.87;;;;;;;15.20;62.06;96674.72;5031951;28;20506;-67
2022/04/14 01:05:28;;;;;;;7.03;4.93;;;;;;;15.11;62.29;96678.91;5031331;28;20462;-68
2022/04/14 01:07:56;;;;;;;7.20;4.32;;;;;;;15.23;61.21;96666.28;5031271;28;20807;-67
2022/04/14 01:10:21;;;;;;;7.53;4.80;;;;;;;15.34;60.88;96667.91;5031361;28;20813;-68
2022/04/14 01:12:47;;;;;;;9.23;4.57;;;;;;;15.35;60.07;96669.50;5031241;28;20403;-68
2022/04/14 01:15:14;;;;;;;5.90;4.03;;;;;;;15.51;59.71;96675.59;5031415;28;20395;-67
2022/04/14 01:17:40;;;;;;;7.63;4.15;;;;;;;15.50;59.68;96674.00;5031881;28;20401;-67
2022/04/14 01:20:08;;;;;;;6.80;3.80;;;;;;;15.53;59.53;96678.81;5014053;28;20395;-67
2022/04/14 01:22:37;;;;;;;5.60;3.70;;;;;;;15.40;59.97;96678.22;5031279;28;20403;-68
2022/04/14 01:25:02;;;;;;;6.35;3.83;;;;;;;15.46;59.57;96673.75;5030453;28;20391;-68
2022/04/14 01:27:29;;;;;;;6.93;4.00;;;;;;;15.55;58.99;96676.72;5031309;28;20425;-68
2022/04/14 01:29:54;;;;;;;6.45;3.78;;;;;;;15.60;58.90;96671.47;5030922;28;20486;-68
2022/04/14 01:32:21;;;;;;;7.60;3.67;;;;;;;15.75;58.23;96676.75;5030809;28;20399;-68
2022/04/14 01:34:47;;;;;;;5.53;3.30;;;;;;;15.66;58.42;96679.09;5030986;28;20753;-68
2022/04/14 01:37:12;;;;;;;6.10;3.57;;;;;;;15.83;58.03;96680.75;5029780;28;20398;-68
2022/04/14 01:39:38;;;;;;;5.43;3.40;;;;;;;15.65;58.35;96679.38;5031050;28;20482;-68
2022/04/14 01:42:04;;;;;;;6.30;3.83;;;;;;;15.40;59.35;96686.16;5030813;28;20884;-67
2022/04/14 01:44:30;;;;;;;4.32;3.70;;;;;;;15.28;60.52;96687.41;5031220;28;20441;-67
2022/04/14 01:46:56;;;;;;;7.60;4.30;;;;;;;14.97;61.60;96691.78;5031004;28;20423;-67
2022/04/14 01:49:21;;;;;;;7.17;4.03;;;;;;;15.07;61.66;96705.03;5013471;28;20391;-69
2022/04/14 01:51:48;;;;;;;7.90;4.60;;;;;;;15.27;61.19;96701.66;5030935;28;20487;-67
2022/04/14 01:54:14;;;;;;;6.80;4.20;;;;;;;15.33;60.84;96692.72;5030552;28;20412;-68
2022/04/14 01:56:39;;;;;;;5.18;3.88;;;;;;;15.38;60.32;96701.44;5031105;28;20426;-68
2022/04/14 01:59:06;;;;;;;7.20;4.60;;;;;;;15.53;60.24;96690.19;5030868;28;20391;-68
2022/04/14 02:01:31;;;;;;;8.00;4.18;;;;;;;15.41;60.54;96700.16;5030526;28;20435;-67
2022/04/14 02:04:02;;;;;;;6.27;4.57;;;;;;;15.27;60.75;96706.94;5030592;28;20395;-67
2022/04/14 02:06:28;;;;;;;8.25;4.50;;;;;;;15.32;61.18;96710.41;5030914;28;20395;-68
2022/04/14 02:08:53;;;;;;;6.45;4.63;;;;;;;15.21;61.32;96708.00;5030287;28;20446;-68
2022/04/14 02:11:18;;;;;;;5.93;4.63;;;;;;;15.13;61.59;96709.28;5031215;28;20411;-67
2022/04/14 02:13:44;;;;;;;6.97;4.30;;;;;;;15.15;61.82;96716.94;5013245;28;20403;-68
2022/04/14 02:16:09;;;;;;;9.90;4.83;;;;;;;15.09;62.04;96716.13;5030801;28;20486;-67
2022/04/14 02:18:35;;;;;;;6.73;5.03;;;;;;;15.14;61.74;96721.44;5030871;28;20391;-67
2022/04/14 02:21:00;;;;;;;7.47;5.07;;;;;;;15.01;62.31;96716.59;5030505;28;20846;-67
2022/04/14 02:23:26;;;;;;;5.63;4.77;;;;;;;14.64;63.87;96718.50;5030635;28;20422;-67
2022/04/14 02:25:52;;;;;;;6.43;4.65;;;;;;;14.46;64.45;96727.59;5030693;28;20395;-67
2022/04/14 02:28:17;;;;;;;7.68;5.00;;;;;;;14.51;64.69;96728.44;5030414;28;20465;-67
2022/04/14 02:30:42;;;;;;;7.83;4.80;;;;;;;14.39;65.17;96727.00;5030184;28;20406;-67
2022/04/14 02:33:08;;;;;;;6.43;4.70;;;;;;;14.37;65.32;96718.56;5030621;28;20486;-68
2022/04/14 02:35:33;;;;;;;6.65;4.88;;;;;;;14.37;65.54;96721.19;5030038;28;20411;-68
2022/04/14 02:37:59;;;;;;;7.30;4.33;;;;;;;14.64;64.57;96715.84;5029413;28;20391;-67
2022/04/14 02:40:25;;;;;;;7.60;4.30;;;;;;;14.51;65.39;96722.34;5030900;28;20886;-67
2022/04/14 02:42:53;;;;;;;6.90;4.38;;;;;;;14.49;65.23;96722.59;5030875;28;20417;-67
2022/04/14 02:45:19;;;;;;;6.88;4.35;;;;;;;14.57;65.43;96718.72;5030799;28;20483;-67
2022/04/14 02:47:44;;;;;;;7.75;4.55;;;;;;;14.53;65.79;96720.28;5031156;28;20877;-67
2022/04/14 02:50:10;;;;;;;7.97;4.77;;;;;;;14.50;66.00;96721.56;5034050;28;20399;-67
2022/04/14 02:52:35;;;;;;;7.20;4.50;;;;;;;14.67;65.62;96725.88;5034042;28;20402;-67
2022/04/14 02:55:00;;;;;;;9.23;5.07;;;;;;;14.57;66.18;96727.41;5034120;28;20949;-68
2022/04/14 02:57:26;;;;;;;5.67;4.30;;;;;;;14.50;66.51;96726.03;5016251;28;20750;-67
2022/04/14 02:59:51;;;;;;;6.27;4.37;;;;;;;14.52;67.17;96734.50;5033485;28;20877;-68
2022/04/14 03:02:17;;;;;;;8.80;4.82;;;;;;;14.55;66.86;96736.63;5033307;28;20434;-67
2022/04/14 03:04:42;;;;;;;10.33;4.90;;;;;;;14.53;67.38;96734.25;5033597;28;20750;-67
2022/04/14 03:07:07;;;;;;;8.77;5.03;;;;;;;14.63;67.09;96730.88;5033552;28;20403;-67
2022/04/14 03:09:33;;;;;;;9.02;5.10;;;;;;;14.49;67.22;96738.41;5033757;28;20383;-67
2022/04/14 03:11:58;;;;;;;8.10;4.80;;;;;;;14.45;67.90;96739.97;5033960;28;20464;-67
2022/04/14 03:14:23;;;;;;;10.17;5.27;;;;;;;14.60;67.73;96735.88;5033282;28;20391;-67
2022/04/14 03:16:49;;;;;;;6.97;5.30;;;;;;;14.41;68.72;96740.75;5033339;28;20586;-68
2022/04/14 03:19:14;;;;;;;9.07;5.30;;;;;;;14.37;69.01;96731.75;5033185;28;20939;-67
2022/04/14 03:21:40;;;;;;;8.90;4.90;;;;;;;14.45;68.93;96744.47;5033102;28;20754;-68
2022/04/14 03:24:05;;;;;;;7.57;5.20;;;;;;;14.39;69.37;96746.25;5033032;28;20485;-67
2022/04/14 03:26:30;;;;;;;8.20;5.63;;;;;;;14.05;70.67;96736.94;5032963;28;20399;-68
2022/04/14 03:28:56;;;;;;;8.82;5.60;;;;;;;14.08;71.12;96741.75;5032834;28;20402;-67
2022/04/14 03:31:21;;;;;;;8.03;5.63;;;;;;;14.17;71.08;96745.50;5032798;28;20760;-67
2022/04/14 03:33:47;;;;;;;10.87;6.00;;;;;;;14.22;71.41;96750.81;5015389;28;20387;-68
2022/04/14 03:36:12;;;;;;;10.48;6.15;;;;;;;14.12;72.00;96750.72;5032638;28;20752;-67
2022/04/14 03:38:37;;;;;;;10.70;5.80;;;;;;;14.13;72.61;96752.31;5032588;28;20449;-67
2022/04/14 03:41:05;;;;;;;9.73;6.37;;;;;;;14.08;73.23;96755.72;5032623;28;20797;-67
2022/04/14 03:43:34;;;;;;;9.65;6.00;;;;;;;14.08;73.46;96752.28;5032737;28;20829;-67
2022/04/14 03:46:01;;;;;;;10.53;6.97;;;;;;;14.07;74.09;96755.97;5033191;28;20798;-67
2022/04/14 03:48:26;;;;;;;13.10;7.22;;;;;;;14.13;74.53;96753.13;5033038;28;20474;-67
2022/04/14 03:50:53;;;;;;;11.23;7.73;;;;;;;13.95;75.46;96750.03;5033048;28;20474;-68
2022/04/14 03:53:19;;;;;;;11.20;7.75;;;;;;;13.90;76.20;96745.50;5014974;28;20407;-67
2022/04/14 03:55:48;;;;;;;10.15;7.53;;;;;;;13.85;76.92;96753.38;5015097;28;20417;-67
2022/04/14 03:58:14;;;;;;;11.83;8.40;;;;;;;13.74;78.03;96756.94;5032226;28;20885;-68
2022/04/14 04:00:40;;;;;;;14.10;8.77;;;;;;;13.76;77.93;96759.34;5032088;28;20484;-67
2022/04/14 04:03:08;;;;;;;15.75;9.38;;;;;;;13.90;77.94;96757.88;5033415;28;20422;-67
2022/04/14 04:05:34;;;;;;;10.23;9.13;;;;;;;13.73;79.35;96756.13;5032690;28;20908;-68
2022/04/14 04:07:59;;;;;;;14.10;9.73;;;;;;;13.67;79.90;96757.13;5032621;28;20399;-67
2022/04/14 04:10:24;;;;;;;10.80;8.52;;;;;;;13.71;79.54;96752.16;5032730;28;20426;-67
2022/04/14 04:12:50;;;;;;;13.17;9.07;;;;;;;13.60;80.60;96755.72;5032786;28;20437;-67
2022/04/14 04:15:15;;;;;;;13.57;8.97;;;;;;;13.46;81.27;96762.41;5032807;28;20387;-67
2022/04/14 04:17:41;;;;;;;16.45;10.32;;;;;;;13.49;82.22;96759.25;5032031;28;20895;-67
2022/04/14 04:20:07;;;;;;;16.23;11.20;;;;;;;13.58;82.29;96763.88;5014657;28;20895;-67
2022/04/14 04:22:35;;;;;;;15.48;11.80;;;;;;;13.70;81.98;96764.53;5014414;28;20464;-67
2022/04/14 04:25:01;;;;;;;15.13;11.27;;;;;;;13.82;81.04;96769.66;5032392;28;20406;-68
2022/04/14 04:27:27;;;;;;;15.07;10.87;;;;;;;13.58;82.55;96770.97;4981288;28;20540;-68
2022/04/14 04:29:52;;;;;;;17.17;12.13;;;;;;;13.74;82.88;96775.38;5031671;28;20881;-68
2022/04/14 04:32:18;;;;;;;15.30;11.80;;;;;;;13.46;83.63;96775.56;5032255;28;20403;-68
2022/04/14 04:34:44;;;;;;;16.65;11.50;;;;;;;13.74;82.31;96778.81;5032210;28;20402;-67
2022/04/14 04:37:09;;;;;;;14.73;11.50;;;;;;;13.46;83.84;96781.63;5031332;28;20399;-68
2022/04/14 04:39:35;;;;;;;15.30;11.93;;;;;;;13.35;84.85;96779.09;5031991;28;20913;-69
2022/04/14 04:42:00;;;;;;;17.60;12.10;;;;;;;13.36;85.37;96780.72;5032254;28;20901;-69
2022/04/14 04:44:26;;;;;;;17.77;11.90;;;;;;;13.43;85.12;96781.34;5014445;28;20431;-68
2022/04/14 04:46:51;;;;;;;18.58;13.57;;;;;;;13.50;85.02;96780.09;5032263;28;20403;-69
2022/04/14 04:49:17;;;;;;;18.47;13.10;;;;;;;13.44;85.48;96786.34;5032275;28;20466;-68
2022/04/14 04:51:42;;;;;;;16.37;11.50;;;;;;;13.31;85.25;96784.06;5031768;28;20870;-68
2022/04/14 04:54:08;;;;;;;15.80;11.37;;;;;;;13.37;85.32;96784.94;5031200;28;20503;-68
2022/04/14 04:56:33;;;;;;;16.75;12.98;;;;;;;13.48;85.38;96794.56;5031148;28;20407;-68
2022/04/14 04:58:59;;;;;;;17.07;12.63;;;;;;;13.57;85.18;96791.25;5031416;28;20550;-68
2022/04/14 05:01:24;;;;;;;20.17;14.23;;;;;;;13.73;84.98;96787.75;5031470;28;20914;-68
2022/04/14 05:03:50;;;;;;;20.27;14.90;;;;;;;13.73;85.67;96793.03;5031649;28;20498;-68
2022/04/14 05:06:16;;;;;;;17.17;13.87;;;;;;;13.83;85.03;96788.91;5031590;28;20440;-68
2022/04/14 05:08:41;;;;;;;17.50;12.80;;;;;;;13.86;84.24;96802.41;5031435;28;20857;-68
2022/04/14 05:11:07;;;;;;;17.08;13.07;;;;;;;13.92;84.40;96796.13;5030212;28;20395;-68
2022/04/14 05:13:32;;;;;;;18.13;12.53;;;;;;;14.26;81.72;96815.22;5031131;28;20395;-68
2022/04/14 05:15:58;;;;;;;16.13;11.73;;;;;;;14.52;80.07;96814.41;5031280;28;20403;-68
2022/04/14 05:18:23;;;;;;;17.67;11.80;;;;;;;14.54;80.58;96814.19;5031509;28;20473;-68
2022/04/14 05:20:48;;;;;;;13.80;11.20;;;;;;;14.41;80.66;96817.22;5031586;28;20723;-68
2022/04/14 05:23:14;;;;;;;13.77;10.73;;;;;;;14.50;80.32;96818.34;5032182;28;20831;-68
2022/04/14 05:25:40;;;;;;;15.20;10.80;;;;;;;14.43;80.61;96825.69;5031886;28;20552;-68
2022/04/14 05:28:05;;;;;;;18.80;11.30;;;;;;;14.71;79.10;96820.09;5032073;28;20285;-67
2022/04/14 05:30:31;;;;;;;14.33;10.33;;;;;;;14.90;78.60;96823.16;5032092;28;20179;-68
2022/04/14 05:32:56;;;;;;;15.33;11.63;;;;;;;14.80;79.14;96815.97;5032265;28;20225;-68
2022/04/14 05:35:21;;;;;;;18.07;12.20;;;;;;;15.15;78.18;96823.34;5014258;28;20571;-68
2022/04/14 05:37:47;;;;;;;17.13;12.43;;;;;;;15.34;77.12;96823.72;5031971;28;20218;-68
2022/04/14 05:40:13;;;;;;;20.07;15.40;;;;;;;14.92;80.19;96823.72;5032131;28;20248;-68
2022/04/14 05:42:38;;;;;;;24.40;15.13;;;;;;;14.80;81.40;96828.38;5031938;28;20202;-69
2022/04/14 05:45:04;;;;;;;20.90;15.10;;;;;;;15.16;79.98;96832.84;5032118;28;20186;-68
2022/04/14 05:47:30;;;;;;;23.30;15.77;;;;;;;15.37;79.12;96833.78;5032371;28;20680;-68
2022/04/14 05:49:55;;;;;;;23.83;15.43;;;;;;;15.57;78.23;96843.69;5032279;28;20233;-67
2022/04/14 05:52:22;;;;;;;28.80;16.70;;;;;;;15.41;79.09;96837.50;5032315;28;20270;-69
2022/04/14 05:54:48;;;;;;;21.63;15.47;;;;;;;15.47;78.48;96839.13;5032274;28;20183;-68
2022/04/14 05:57:14;;;;;;;23.93;15.23;;;;;;;15.78;77.41;96840.88;5031941;28;20187;-68
2022/04/14 05:59:40;;;;;;;21.10;15.27;;;;;;;15.92;77.13;96843.06;5032357;28;20272;-69
2022/04/14 06:02:05;;;;;;;21.57;14.80;;;;;;;16.19;75.34;96847.13;5032324;28;20684;-69
2022/04/14 06:04:31;;;;;;;22.33;15.10;;;;;;;16.09;75.49;96848.94;5014292;28;20269;-68
2022/04/14 06:06:56;;;;;;;20.50;14.87;;;;;;;16.43;74.16;96849.31;5031360;28;20198;-68
2022/04/14 06:09:21;;;;;;;23.00;16.60;;;;;;;15.97;75.61;96854.44;5031735;28;20266;-68
2022/04/14 06:11:47;;;;;;;20.77;15.17;;;;;;;15.51;78.27;96855.25;5032044;28;20187;-68
2022/04/14 06:14:12;;;;;;;21.40;15.27;;;;;;;15.89;77.43;96849.66;5031919;28;20236;-69
2022/04/14 06:16:38;;;;;;;22.90;17.43;;;;;;;15.93;76.63;96845.47;5030777;28;20387;-67
2022/04/14 06:19:03;;;;;;;21.88;17.27;;;;;;;16.40;74.69;96845.31;5030366;28;20405;-68
2022/04/14 06:21:29;;;;;;;20.23;17.43;;;;;;;15.82;77.13;96861.53;5030562;28;20418;-69
2022/04/14 06:23:56;;;;;;;22.30;17.35;;;;;;;16.16;76.11;96862.72;5032793;28;20423;-68
2022/04/14 06:26:22;;;;;;;22.70;16.73;;;;;;;16.42;74.10;96863.59;5016816;28;20790;-69
2022/04/14 06:28:47;;;;;;;22.55;17.23;;;;;;;15.99;76.62;96860.28;5034168;28;20462;-68
2022/04/14 06:31:13;;;;;;;20.25;16.42;;;;;;;16.35;75.38;96861.19;5016383;28;21137;-70
2022/04/14 06:33:39;;;;;;;26.05;16.92;;;;;;;16.82;72.59;96868.19;5034066;28;20403;-69
2022/04/14 06:36:04;;;;;;;23.67;16.50;;;;;;;16.36;74.12;96868.06;5034074;28;20398;-69
2022/04/14 06:38:30;;;;;;;22.60;16.20;;;;;;;16.76;72.86;96872.66;5034591;28;20688;-69
2022/04/14 06:40:55;;;;;;;20.03;15.07;;;;;;;16.83;72.52;96870.53;5035649;28;20190;-68
2022/04/14 06:43:21;;;;;;;19.20;14.93;;;;;;;16.78;72.54;96872.38;5035198;28;20206;-68
2022/04/14 06:45:47;;;;;;;20.93;15.57;;;;;;;16.73;72.90;96867.09;5022306;28;20180;-69
2022/04/14 06:48:13;;;;;;;20.33;15.03;;;;;;;17.02;71.38;96868.97;5029027;28;20190;-70
2022/04/14 06:50:40;;;;;;;18.83;14.97;;;;;;;16.25;73.39;96870.94;5035429;28;20178;-69
2022/04/14 06:53:05;;;;;;;22.40;14.57;;;;;;;16.33;74.23;96870.44;5017740;28;20245;-71
2022/04/14 06:55:32;;;;;;;27.47;15.00;;;;;;;16.88;72.46;96878.50;5035321;28;20191;-70
2022/04/14 06:57:58;;;;;;;23.53;14.97;;;;;;;16.65;72.70;96871.06;5017169;28;20186;-70
2022/04/14 07:00:24;;;;;;;24.67;15.40;;;;;;;16.01;75.28;96875.88;5024818;28;20750;-70
2022/04/14 07:02:52;;;;;;;22.90;14.87;;;;;;;16.06;76.16;96876.69;5032422;28;20238;-68
2022/04/14 07:05:18;;;;;;;20.43;14.30;;;;;;;16.80;73.78;96871.06;5031646;28;20626;-68
2022/04/14 07:07:44;;;;;;;20.97;14.40;;;;;;;16.96;72.49;96875.31;5034565;28;20190;-68
2022/04/14 07:10:12;;;;;;;24.00;14.93;;;;;;;17.18;71.19;96871.59;5034095;28;20179;-68
2022/04/14 07:12:38;;;;;;;20.17;14.47;;;;;;;16.69;72.81;96877.41;5034475;28;20182;-67
2022/04/14 07:15:04;;;;;;;21.10;13.60;;;;;;;17.52;70.49;96875.28;5034384;28;20191;-69
2022/04/14 07:17:30;;;;;;;21.23;13.40;;;;;;;17.89;67.96;96874.16;5034235;28;20210;-68
2022/04/14 07:19:57;;;;;;;20.40;13.97;;;;;;;17.40;69.13;96877.41;5034414;28;20257;-68
2022/04/14 07:22:22;;;;;;;19.53;13.97;;;;;;;17.12;70.41;96875.31;5034166;28;20256;-68
2022/04/14 07:24:49;;;;;;;22.47;14.10;;;;;;;17.13;70.31;96884.84;5016341;28;20191;-67
2022/04/14 07:27:17;;;;;;;21.20;14.00;;;;;;;16.50;73.04;96892.16;5034239;28;20205;-70
2022/04/14 07:29:44;;;;;;;19.47;13.53;;;;;;;16.72;73.00;96892.00;5016406;28;20531;-68
2022/04/14 07:32:09;;;;;;;21.33;14.00;;;;;;;16.85;72.00;96892.25;5034029;28;20187;-68
2022/04/14 07:34:34;;;;;;;21.23;12.67;;;;;;;17.45;70.17;96893.31;5033076;28;20194;-68
2022/04/14 07:37:00;;;;;;;20.73;13.13;;;;;;;16.66;72.83;96896.47;5033105;28;20232;-73
2022/04/14 07:39:25;;;;;;;15.47;12.07;;;;;;;17.63;72.30;96894.63;5033574;28;20236;-72
2022/04/14 07:41:51;;;;;;;18.87;12.87;;;;;;;17.73;68.32;96886.66;5033736;28;21029;-71
2022/04/14 07:44:16;;;;;;;15.50;12.03;;;;;;;18.03;66.97;96894.53;5033694;28;20645;-67
2022/04/14 07:46:41;;;;;;;17.37;13.30;;;;;;;17.86;67.40;96900.16;5033622;28;20178;-67
2022/04/14 07:49:07;;;;;;;18.20;13.40;;;;;;;17.83;67.22;96898.00;5033500;28;20269;-67
2022/04/14 07:51:32;;;;;;;18.23;13.30;;;;;;;17.57;68.31;96904.41;5034055;28;20641;-68
2022/04/14 07:53:58;;;;;;;18.40;14.03;;;;;;;16.94;70.53;96909.19;5033343;28;20651;-67
2022/04/14 07:56:24;;;;;;;20.10;13.93;;;;;;;17.34;69.99;96907.63;5033673;28;20186;-67
2022/04/14 07:58:50;;;;;;;17.67;13.03;;;;;;;17.54;69.40;96910.25;5015430;28;20274;-68
2022/04/14 08:01:18;;;;;;;18.67;13.20;;;;;;;18.06;67.24;96914.38;5033056;28;20759;-68
2022/04/14 08:03:46;;;;;;;18.70;12.87;;;;;;;18.01;66.75;96909.09;5016238;28;20226;-68
2022/04/14 08:06:13;;;;;;;20.50;13.23;;;;;;;17.84;67.04;96918.19;5034226;28;20181;-68
2022/04/14 08:08:38;;;;;;;19.10;13.27;;;;;;;17.81;67.71;96916.06;5032769;28;20182;-68
2022/04/14 08:11:04;;;;;;;18.37;12.73;;;;;;;17.43;68.84;96914.00;5033044;28;20193;-67
2022/04/14 08:13:30;;;;;;;20.67;13.17;;;;;;;17.12;70.47;96925.63;5033418;28;20199;-68
2022/04/14 08:16:01;;;;;;;18.70;13.07;;;;;;;17.36;70.47;96924.84;5015769;28;20175;-68
2022/04/14 08:18:26;;;;;;;19.70;14.47;;;;;;;17.41;69.76;96924.06;5033274;28;20202;-68
2022/04/14 08:20:52;;;;;;;18.83;12.93;;;;;;;17.40;70.34;96922.47;5033105;28;20276;-68
2022/04/14 08:23:18;;;;;;;20.40;13.60;;;;;;;17.62;68.74;96923.00;5031796;28;20565;-68
2022/04/14 08:25:43;;;;;;;19.87;12.83;;;;;;;18.28;67.02;96925.44;5015273;28;20626;-67
2022/04/14 08:28:08;;;;;;;18.27;12.63;;;;;;;18.14;66.54;96922.59;5032377;28;20214;-68
2022/04/14 08:30:35;;;;;;;17.03;12.50;;;;;;;18.08;66.36;96922.88;5032617;28;20178;-68
2022/04/14 08:33:05;;;;;;;17.53;11.93;;;;;;;18.38;65.81;96917.47;5032555;28;20281;-67
2022/04/14 08:35:32;;;;;;;17.80;13.03;;;;;;;18.06;66.92;96928.44;5033260;28;20182;-68
2022/04/14 08:37:58;;;;;;;18.77;12.97;;;;;;;18.02;67.23;96924.75;5032638;28;20673;-68
2022/04/14 08:40:28;;;;;;;17.83;12.17;;;;;;;18.03;66.65;96921.03;5032757;28;20177;-68
2022/04/14 08:43:03;;;;;;;21.63;13.10;;;;;;;17.95;67.09;96915.50;5014930;28;20684;-68
2022/04/14 08:45:34;;;;;;;17.33;12.90;;;;;;;17.73;67.97;96924.56;5032229;28;20274;-68
2022/04/14 08:48:01;;;;;;;15.33;11.90;;;;;;;17.73;67.81;96916.59;5032070;28;20233;-68
2022/04/14 08:50:27;;;;;;;16.90;11.57;;;;;;;18.03;66.35;96920.25;5032496;28;20182;-68
2022/04/14 08:52:53;;;;;;;17.77;12.67;;;;;;;17.54;67.74;96922.72;5032371;28;20253;-69
2022/04/14 08:55:19;;;;;;;16.77;12.33;;;;;;;17.78;67.67;96918.44;5031671;28;20211;-68
2022/04/14 08:57:45;;;;;;;20.20;12.60;;;;;;;17.93;66.96;96915.78;5032278;28;20281;-68
2022/04/14 09:00:16;;;;;;;16.93;11.83;;;;;;;18.42;66.12;96917.72;5031794;28;20193;-67
2022/04/14 09:02:44;;;;;;;16.93;12.73;;;;;;;18.02;67.13;96926.63;5030998;28;20273;-68
2022/04/14 09:05:09;;;;;;;16.23;11.05;;;;;;;18.62;65.59;96926.38;5031746;28;20671;-67
2022/04/14 09:07:35;;;;;;;14.93;11.98;;;;;;;19.18;63.28;96917.25;5032282;28;20187;-68
2022/04/14 09:10:00;;;;;;;15.57;11.30;;;;;;;18.57;63.35;96922.97;5013774;28;20240;-68
2022/04/14 09:12:27;;;;;;;15.60;11.60;;;;;;;18.51;64.09;96926.66;5031976;28;20198;-67
2022/04/14 09:14:52;;;;;;;16.83;12.13;;;;;;;18.60;63.91;96923.22;5032083;28;20232;-68
2022/04/14 09:17:17;;;;;;;15.95;12.20;;;;;;;19.03;62.91;96921.63;5031271;28;20198;-67
2022/04/14 09:19:43;;;;;;;15.90;12.13;;;;;;;18.37;64.39;96929.16;5031967;28;20682;-68
2022/04/14 09:22:13;;;;;;;20.60;13.07;;;;;;;18.14;64.91;96932.41;5031873;28;20253;-68
2022/04/14 09:24:39;;;;;;;18.37;12.80;;;;;;;18.44;64.88;96929.66;5032184;28;20183;-67
2022/04/14 09:27:05;;;;;;;19.23;12.20;;;;;;;18.28;65.19;96928.91;5031624;28;20186;-67
2022/04/14 09:29:31;;;;;;;19.53;11.57;;;;;;;18.10;65.84;96926.88;5032090;28;20183;-67
2022/04/14 09:31:56;;;;;;;18.95;12.30;;;;;;;18.11;65.60;96935.63;5030861;28;20419;-68
2022/04/14 09:34:44;;;;;;;20.52;12.60;;;;;;;17.73;66.64;96934.38;5031586;28;20193;-68
2022/04/14 09:37:09;;;;;;;17.00;12.70;;;;;;;18.03;66.22;96925.56;5014461;28;20191;-69
2022/04/14 09:39:55;;;;;;;17.38;12.25;;;;;;;18.03;66.08;96930.88;5032050;28;20198;-69
2022/04/14 09:42:25;;;;;;;20.97;12.73;;;;;;;18.02;65.54;96930.06;5032329;28;20209;-69
2022/04/14 09:44:51;;;;;;;14.93;11.10;;;;;;;18.66;64.27;96924.78;4996578;28;20183;-69
2022/04/14 09:47:40;;;;;;;15.82;11.13;;;;;;;18.34;64.99;96934.97;5014233;28;20193;-69
2022/04/14 09:50:22;;;;;;;14.77;11.47;;;;;;;18.71;63.94;96931.94;5005793;28;20225;-68
2022/04/14 09:53:05;;;;;;;14.00;10.43;;;;;;;18.60;63.69;96939.16;4995892;28;20881;-68
2022/04/14 09:55:31;;;;;;;14.73;11.17;;;;;;;18.38;64.65;96932.59;5021594;28;20274;-68
2022/04/14 09:58:10;;;;;;;17.17;11.70;;;;;;;18.29;64.31;96932.34;5032088;28;20703;-68
2022/04/14 10:00:46;;;;;;;13.93;11.40;;;;;;;18.33;64.16;96935.28;5035749;28;20228;-68
2022/04/14 10:03:15;;;;;;;17.17;11.90;;;;;;;18.62;63.25;96929.03;5035373;28;20321;-69
2022/04/14 10:05:41;;;;;;;16.43;11.57;;;;;;;18.59;63.64;96924.28;5035361;28;20187;-69
2022/04/14 10:08:08;;;;;;;14.00;10.27;;;;;;;18.81;63.08;96923.88;5017633;28;20183;-69
2022/04/14 10:10:38;;;;;;;15.68;11.93;;;;;;;18.60;62.40;96928.53;5035566;28;20191;-68
2022/04/14 10:13:09;;;;;;;17.57;12.07;;;;;;;19.07;61.29;96913.88;5017370;28;20269;-68
2022/04/14 10:15:40;;;;;;;16.88;11.20;;;;;;;19.11;60.01;96918.34;5034187;28;20281;-68
2022/04/14 10:18:14;;;;;;;12.53;10.00;;;;;;;18.71;60.60;96913.34;5035790;28;20178;-69
2022/04/14 10:20:42;;;;;;;13.73;10.57;;;;;;;18.66;60.13;96913.38;5028323;28;20182;-69
2022/04/14 10:23:09;;;;;;;13.93;10.30;;;;;;;19.00;59.86;96916.06;5019788;28;20661;-68
2022/04/14 10:25:38;;;;;;;15.93;11.10;;;;;;;19.17;58.43;96910.38;5034541;28;20210;-69
2022/04/14 10:28:06;;;;;;;15.52;10.00;;;;;;;19.04;58.59;96909.13;5023168;28;20268;-68
2022/04/14 10:30:32;;;;;;;12.90;10.18;;;;;;;19.18;59.14;96906.63;5033649;28;20224;-69
2022/04/14 10:32:57;;;;;;;15.18;11.07;;;;;;;18.86;60.22;96912.44;5035539;28;20201;-68
2022/04/14 10:35:28;;;;;;;15.75;11.32;;;;;;;18.51;61.85;96911.53;5035189;28;20963;-69
2022/04/14 10:38:15;;;;;;;17.30;11.15;;;;;;;18.96;60.95;96915.00;5035277;28;20566;-69
2022/04/14 10:40:51;;;;;;;15.38;11.23;;;;;;;18.71;61.41;96916.00;5016660;28;20190;-68
2022/04/14 10:43:20;;;;;;;15.03;10.87;;;;;;;18.71;62.25;96910.69;5016607;28;20297;-69
2022/04/14 10:45:51;;;;;;;16.60;11.65;;;;;;;18.83;62.29;96913.78;5035061;28;20191;-69
2022/04/14 10:48:32;;;;;;;13.13;10.83;;;;;;;19.16;62.02;96906.91;5034744;28;20177;-68
2022/04/14 10:51:17;;;;;;;15.07;11.35;;;;;;;19.30;61.14;96899.88;5034692;28;20221;-69
2022/04/14 10:53:57;;;;;;;12.27;9.98;;;;;;;19.59;59.88;96902.56;5035447;28;20649;-69
2022/04/14 10:56:42;;;;;;;13.13;9.68;;;;;;;20.06;57.79;96899.13;5034696;28;20301;-69
2022/04/14 10:59:28;;;;;;;14.25;11.05;;;;;;;19.60;58.67;96909.47;5034217;28;20214;-68
2022/04/14 11:01:55;;;;;;;13.60;10.73;;;;;;;19.65;59.95;96892.69;5034518;28;20222;-68
2022/04/14 11:04:35;;;;;;;20.33;11.68;;;;;;;19.40;59.53;96901.63;5034968;28;20325;-66
2022/04/14 11:07:14;;;;;;;14.70;10.63;;;;;;;19.33;60.20;96912.63;5035214;28;20228;-69
2022/04/14 11:09:42;;;;;;;12.98;11.07;;;;;;;19.18;60.03;96909.28;5034534;28;20182;-68
2022/04/14 11:12:13;;;;;;;13.43;10.07;;;;;;;19.55;59.35;96914.84;5034599;28;20205;-68
2022/04/14 11:14:48;;;;;;;14.48;10.98;;;;;;;19.31;58.82;96916.63;5034520;28;20626;-68
2022/04/14 11:17:48;;;;;;;17.73;11.00;;;;;;;19.09;58.93;96925.81;5016563;28;20633;-68
2022/04/14 11:20:36;;;;;;;13.27;10.25;;;;;;;19.29;58.76;96914.22;5006161;28;20677;-68
2022/04/14 11:23:11;;;;;;;14.70;10.95;;;;;;;19.68;57.64;96922.16;5034457;28;20205;-68